Terminal Aerodrome Forecast
Issued by NWS

Home | Current Version | Previous Version | Text Only | Print | Product List | Glossary On
Versions: 1 2 3 4 5 6 7 8 9 10 11 12 13 14 15 16
000
FTUS43 KEAX 172000 AAB
TAFSTJ
TAF AMD
KSTJ 172040Z 1721/1818 13004KT P6SM SCT025
     FM180200 09003KT 4SM BR FEW015
     FM180600 09003KT 2SM BR OVC008
     FM181400 12008KT P6SM SCT020=

USA.gov is the U.S. government's official web portal to all federal, state and local government web resources and services.